sensor_id;sensor_type;location;lat;lon;timestamp;temperature;humidity
44695;DHT22;32845;59.422;17.930;2023-02-23T00:01:28;-0.40;99.90
44695;DHT22;32845;59.422;17.930;2023-02-23T00:06:02;-0.40;99.90
44695;DHT22;32845;59.422;17.930;2023-02-23T00:10:33;-0.40;99.90
44695;DHT22;32845;59.422;17.930;2023-02-23T00:15:03;-0.40;99.90
44695;DHT22;32845;59.422;17.930;2023-02-23T00:19:34;-0.40;99.90
44695;DHT22;32845;59.422;17.930;2023-02-23T00:24:09;-0.40;99.90
44695;DHT22;32845;59.422;17.930;2023-02-23T00:28:43;-0.30;99.90
44695;DHT22;32845;59.422;17.930;2023-02-23T00:33:13;-0.30;99.90
44695;DHT22;32845;59.422;17.930;2023-02-23T00:37:47;-0.30;99.90
44695;DHT22;32845;59.422;17.930;2023-02-23T00:42:18;-0.30;99.90
44695;DHT22;32845;59.422;17.930;2023-02-23T00:46:50;-0.20;99.90
44695;DHT22;32845;59.422;17.930;2023-02-23T00:51:22;-0.20;99.90
44695;DHT22;32845;59.422;17.930;2023-02-23T00:55:53;-0.20;99.90
44695;DHT22;32845;59.422;17.930;2023-02-23T01:00:24;-0.20;99.90
44695;DHT22;32845;59.422;17.930;2023-02-23T01:04:55;-0.20;99.90
44695;DHT22;32845;59.422;17.930;2023-02-23T01:09:26;-0.20;99.90
44695;DHT22;32845;59.422;17.930;2023-02-23T01:13:59;-0.10;99.90
44695;DHT22;32845;59.422;17.930;2023-02-23T01:18:30;-0.10;99.90
44695;DHT22;32845;59.422;17.930;2023-02-23T01:23:01;0.00;99.90
44695;DHT22;32845;59.422;17.930;2023-02-23T01:27:32;0.00;99.90
44695;DHT22;32845;59.422;17.930;2023-02-23T01:32:04;0.00;99.90
44695;DHT22;32845;59.422;17.930;2023-02-23T01:36:37;0.00;99.90
44695;DHT22;32845;59.422;17.930;2023-02-23T01:41:10;0.00;99.90
44695;DHT22;32845;59.422;17.930;2023-02-23T01:45:44;0.00;99.90
44695;DHT22;32845;59.422;17.930;2023-02-23T01:50:15;0.10;99.90
44695;DHT22;32845;59.422;17.930;2023-02-23T01:54:49;0.10;99.90
44695;DHT22;32845;59.422;17.930;2023-02-23T01:59:21;0.10;99.90
44695;DHT22;32845;59.422;17.930;2023-02-23T02:04:02;0.10;99.90
44695;DHT22;32845;59.422;17.930;2023-02-23T02:08:36;0.00;99.90
44695;DHT22;32845;59.422;17.930;2023-02-23T02:13:19;0.00;99.90
44695;DHT22;32845;59.422;17.930;2023-02-23T02:47:09;-0.10;99.90
44695;DHT22;32845;59.422;17.930;2023-02-23T02:52:27;-0.10;99.90
44695;DHT22;32845;59.422;17.930;2023-02-23T02:57:01;-0.10;99.90
44695;DHT22;32845;59.422;17.930;2023-02-23T03:01:33;-0.10;99.90
44695;DHT22;32845;59.422;17.930;2023-02-23T03:06:30;-0.10;99.90
44695;DHT22;32845;59.422;17.930;2023-02-23T03:11:24;-0.20;99.90
44695;DHT22;32845;59.422;17.930;2023-02-23T03:16:28;-0.10;99.90
44695;DHT22;32845;59.422;17.930;2023-02-23T03:21:25;-0.10;99.90
44695;DHT22;32845;59.422;17.930;2023-02-23T03:26:35;-0.10;99.90
44695;DHT22;32845;59.422;17.930;2023-02-23T03:36:59;-0.10;99.90
44695;DHT22;32845;59.422;17.930;2023-02-23T03:41:51;-0.10;99.90
44695;DHT22;32845;59.422;17.930;2023-02-23T03:46:42;-0.10;99.90
44695;DHT22;32845;59.422;17.930;2023-02-23T03:51:35;-0.10;99.90
44695;DHT22;32845;59.422;17.930;2023-02-23T03:56:26;-0.10;99.90
44695;DHT22;32845;59.422;17.930;2023-02-23T04:01:18;-0.10;99.90
44695;DHT22;32845;59.422;17.930;2023-02-23T04:06:12;-0.10;99.90
44695;DHT22;32845;59.422;17.930;2023-02-23T04:11:14;-0.10;99.90
44695;DHT22;32845;59.422;17.930;2023-02-23T04:16:08;-0.10;99.90
44695;DHT22;32845;59.422;17.930;2023-02-23T04:20:39;0.00;99.90
44695;DHT22;32845;59.422;17.930;2023-02-23T04:25:10;0.00;99.90
44695;DHT22;32845;59.422;17.930;2023-02-23T04:29:42;0.00;99.90
44695;DHT22;32845;59.422;17.930;2023-02-23T04:34:14;0.00;99.90
44695;DHT22;32845;59.422;17.930;2023-02-23T04:38:44;0.00;99.90
44695;DHT22;32845;59.422;17.930;2023-02-23T04:43:15;0.00;99.90
44695;DHT22;32845;59.422;17.930;2023-02-23T04:47:46;0.00;99.90
44695;DHT22;32845;59.422;17.930;2023-02-23T04:52:17;0.00;99.90
44695;DHT22;32845;59.422;17.930;2023-02-23T04:56:47;0.00;99.90
44695;DHT22;32845;59.422;17.930;2023-02-23T05:01:18;0.00;99.90
44695;DHT22;32845;59.422;17.930;2023-02-23T05:05:51;-0.10;99.90
44695;DHT22;32845;59.422;17.930;2023-02-23T05:10:22;0.00;99.90
44695;DHT22;32845;59.422;17.930;2023-02-23T05:14:53;-0.10;99.90
44695;DHT22;32845;59.422;17.930;2023-02-23T05:19:24;0.00;99.90
44695;DHT22;32845;59.422;17.930;2023-02-23T05:23:54;-0.10;99.90
44695;DHT22;32845;59.422;17.930;2023-02-23T05:28:26;-0.10;99.90
44695;DHT22;32845;59.422;17.930;2023-02-23T05:32:57;-0.10;99.90
44695;DHT22;32845;59.422;17.930;2023-02-23T05:37:28;-0.10;99.90
44695;DHT22;32845;59.422;17.930;2023-02-23T05:41:58;-0.10;99.90
44695;DHT22;32845;59.422;17.930;2023-02-23T05:46:29;-0.10;99.90
44695;DHT22;32845;59.422;17.930;2023-02-23T05:51:04;-0.10;99.90
44695;DHT22;32845;59.422;17.930;2023-02-23T05:55:36;-0.10;99.90
44695;DHT22;32845;59.422;17.930;2023-02-23T06:00:08;-0.10;99.90
44695;DHT22;32845;59.422;17.930;2023-02-23T06:04:40;0.00;99.90
44695;DHT22;32845;59.422;17.930;2023-02-23T06:09:11;0.00;99.90
44695;DHT22;32845;59.422;17.930;2023-02-23T06:13:42;0.00;99.90
44695;DHT22;32845;59.422;17.930;2023-02-23T06:18:12;0.00;99.90
44695;DHT22;32845;59.422;17.930;2023-02-23T06:22:43;0.00;99.90
44695;DHT22;32845;59.422;17.930;2023-02-23T06:27:14;0.00;99.90
44695;DHT22;32845;59.422;17.930;2023-02-23T06:31:44;0.00;99.90
44695;DHT22;32845;59.422;17.930;2023-02-23T06:36:15;0.00;99.90
44695;DHT22;32845;59.422;17.930;2023-02-23T06:40:46;0.00;99.90
44695;DHT22;32845;59.422;17.930;2023-02-23T06:45:17;0.00;99.90
44695;DHT22;32845;59.422;17.930;2023-02-23T06:49:48;0.10;99.90
44695;DHT22;32845;59.422;17.930;2023-02-23T06:54:19;0.10;99.90
44695;DHT22;32845;59.422;17.930;2023-02-23T06:58:50;0.10;99.90
44695;DHT22;32845;59.422;17.930;2023-02-23T07:03:21;0.10;99.90
44695;DHT22;32845;59.422;17.930;2023-02-23T07:07:52;0.10;99.90
44695;DHT22;32845;59.422;17.930;2023-02-23T07:12:23;0.10;99.90
44695;DHT22;32845;59.422;17.930;2023-02-23T07:16:53;0.20;99.90
44695;DHT22;32845;59.422;17.930;2023-02-23T07:21:24;0.20;99.90
44695;DHT22;32845;59.422;17.930;2023-02-23T07:25:55;0.20;99.90
44695;DHT22;32845;59.422;17.930;2023-02-23T07:30:26;0.30;99.90
44695;DHT22;32845;59.422;17.930;2023-02-23T07:34:56;0.30;99.90
44695;DHT22;32845;59.422;17.930;2023-02-23T07:39:27;0.30;99.90
44695;DHT22;32845;59.422;17.930;2023-02-23T07:43:58;0.40;99.90
44695;DHT22;32845;59.422;17.930;2023-02-23T07:48:29;0.50;99.90
44695;DHT22;32845;59.422;17.930;2023-02-23T07:53:00;0.50;99.90
44695;DHT22;32845;59.422;17.930;2023-02-23T07:57:31;0.50;99.90
44695;DHT22;32845;59.422;17.930;2023-02-23T08:02:02;0.60;99.90
44695;DHT22;32845;59.422;17.930;2023-02-23T08:06:32;0.60;99.90
44695;DHT22;32845;59.422;17.930;2023-02-23T08:11:04;0.70;99.90
44695;DHT22;32845;59.422;17.930;2023-02-23T08:15:35;0.70;99.90
44695;DHT22;32845;59.422;17.930;2023-02-23T08:20:06;0.80;99.90
44695;DHT22;32845;59.422;17.930;2023-02-23T08:24:37;0.80;99.90
44695;DHT22;32845;59.422;17.930;2023-02-23T08:29:08;0.90;99.90
44695;DHT22;32845;59.422;17.930;2023-02-23T08:33:39;0.90;99.90
44695;DHT22;32845;59.422;17.930;2023-02-23T08:38:10;1.00;99.90
44695;DHT22;32845;59.422;17.930;2023-02-23T08:42:41;1.00;99.90
44695;DHT22;32845;59.422;17.930;2023-02-23T08:47:12;1.10;99.90
44695;DHT22;32845;59.422;17.930;2023-02-23T08:51:45;1.20;99.90
44695;DHT22;32845;59.422;17.930;2023-02-23T08:56:16;1.20;99.90
44695;DHT22;32845;59.422;17.930;2023-02-23T09:00:47;1.30;99.90
44695;DHT22;32845;59.422;17.930;2023-02-23T09:05:17;1.30;99.90
44695;DHT22;32845;59.422;17.930;2023-02-23T09:09:55;1.30;99.90
44695;DHT22;32845;59.422;17.930;2023-02-23T09:14:26;1.40;99.90
44695;DHT22;32845;59.422;17.930;2023-02-23T09:18:57;1.40;99.90
44695;DHT22;32845;59.422;17.930;2023-02-23T09:23:30;1.40;99.90
44695;DHT22;32845;59.422;17.930;2023-02-23T09:28:01;1.40;99.90
44695;DHT22;32845;59.422;17.930;2023-02-23T09:32:32;1.50;99.90
44695;DHT22;32845;59.422;17.930;2023-02-23T09:37:03;1.50;99.90
44695;DHT22;32845;59.422;17.930;2023-02-23T09:41:55;1.50;99.90
44695;DHT22;32845;59.422;17.930;2023-02-23T09:51:15;1.60;99.90
44695;DHT22;32845;59.422;17.930;2023-02-23T09:55:47;1.60;99.90
44695;DHT22;32845;59.422;17.930;2023-02-23T10:00:24;1.60;99.90
44695;DHT22;32845;59.422;17.930;2023-02-23T10:05:08;1.70;99.90
44695;DHT22;32845;59.422;17.930;2023-02-23T10:19:15;1.80;99.90
44695;DHT22;32845;59.422;17.930;2023-02-23T10:24:01;1.90;99.90
44695;DHT22;32845;59.422;17.930;2023-02-23T10:28:35;1.90;99.90
44695;DHT22;32845;59.422;17.930;2023-02-23T10:33:13;1.80;99.90
44695;DHT22;32845;59.422;17.930;2023-02-23T10:37:46;1.80;99.90
44695;DHT22;32845;59.422;17.930;2023-02-23T10:42:26;1.80;99.90
44695;DHT22;32845;59.422;17.930;2023-02-23T10:47:07;1.90;99.90
44695;DHT22;32845;59.422;17.930;2023-02-23T10:51:38;1.90;99.90
44695;DHT22;32845;59.422;17.930;2023-02-23T10:56:16;1.90;99.90
44695;DHT22;32845;59.422;17.930;2023-02-23T11:00:51;1.90;99.90
44695;DHT22;32845;59.422;17.930;2023-02-23T11:05:54;1.80;99.90
44695;DHT22;32845;59.422;17.930;2023-02-23T11:10:26;1.80;99.90
44695;DHT22;32845;59.422;17.930;2023-02-23T11:14:57;1.80;99.90
44695;DHT22;32845;59.422;17.930;2023-02-23T11:19:33;1.90;99.90
44695;DHT22;32845;59.422;17.930;2023-02-23T11:24:24;1.90;99.90
44695;DHT22;32845;59.422;17.930;2023-02-23T11:28:58;1.90;99.90
44695;DHT22;32845;59.422;17.930;2023-02-23T11:33:33;1.90;99.90
44695;DHT22;32845;59.422;17.930;2023-02-23T11:38:27;1.90;99.90
44695;DHT22;32845;59.422;17.930;2023-02-23T11:47:44;2.00;99.90
44695;DHT22;32845;59.422;17.930;2023-02-23T11:52:18;2.00;99.90
44695;DHT22;32845;59.422;17.930;2023-02-23T11:56:50;1.90;99.90
44695;DHT22;32845;59.422;17.930;2023-02-23T12:01:42;2.00;99.90
44695;DHT22;32845;59.422;17.930;2023-02-23T12:11:02;2.00;99.90
44695;DHT22;32845;59.422;17.930;2023-02-23T12:16:19;1.90;99.90
44695;DHT22;32845;59.422;17.930;2023-02-23T12:20:55;2.00;99.90
44695;DHT22;32845;59.422;17.930;2023-02-23T12:25:46;2.00;99.90
44695;DHT22;32845;59.422;17.930;2023-02-23T12:30:41;2.00;99.90
44695;DHT22;32845;59.422;17.930;2023-02-23T12:40:10;1.90;99.90
44695;DHT22;32845;59.422;17.930;2023-02-23T12:44:48;1.80;99.90
44695;DHT22;32845;59.422;17.930;2023-02-23T12:49:43;1.90;99.90
44695;DHT22;32845;59.422;17.930;2023-02-23T12:54:15;1.90;99.90
44695;DHT22;32845;59.422;17.930;2023-02-23T13:09:19;2.00;99.90
44695;DHT22;32845;59.422;17.930;2023-02-23T13:24:05;2.00;99.90
44695;DHT22;32845;59.422;17.930;2023-02-23T13:29:02;2.00;99.90
44695;DHT22;32845;59.422;17.930;2023-02-23T13:33:35;2.00;99.90
44695;DHT22;32845;59.422;17.930;2023-02-23T13:38:16;2.00;99.90
44695;DHT22;32845;59.422;17.930;2023-02-23T13:52:41;2.00;99.90
44695;DHT22;32845;59.422;17.930;2023-02-23T13:57:13;2.00;99.90
44695;DHT22;32845;59.422;17.930;2023-02-23T14:01:49;2.00;99.90
44695;DHT22;32845;59.422;17.930;2023-02-23T14:06:25;2.00;99.90
44695;DHT22;32845;59.422;17.930;2023-02-23T14:10:57;2.00;99.90
44695;DHT22;32845;59.422;17.930;2023-02-23T14:15:49;2.00;99.90
44695;DHT22;32845;59.422;17.930;2023-02-23T14:34:49;1.90;99.90
44695;DHT22;32845;59.422;17.930;2023-02-23T14:39:25;2.00;99.90
44695;DHT22;32845;59.422;17.930;2023-02-23T14:44:13;2.00;99.90
44695;DHT22;32845;59.422;17.930;2023-02-23T14:48:59;2.00;99.90
44695;DHT22;32845;59.422;17.930;2023-02-23T14:53:30;2.00;99.90
44695;DHT22;32845;59.422;17.930;2023-02-23T14:58:02;2.00;99.90
44695;DHT22;32845;59.422;17.930;2023-02-23T15:02:33;1.90;99.90
44695;DHT22;32845;59.422;17.930;2023-02-23T15:07:05;1.90;99.90
44695;DHT22;32845;59.422;17.930;2023-02-23T15:11:36;1.90;99.90
44695;DHT22;32845;59.422;17.930;2023-02-23T15:16:13;1.80;99.90
44695;DHT22;32845;59.422;17.930;2023-02-23T15:20:46;1.80;99.90
44695;DHT22;32845;59.422;17.930;2023-02-23T15:25:23;1.80;99.90
44695;DHT22;32845;59.422;17.930;2023-02-23T15:29:55;1.80;99.90
44695;DHT22;32845;59.422;17.930;2023-02-23T15:34:28;1.80;99.90
44695;DHT22;32845;59.422;17.930;2023-02-23T15:39:03;1.70;99.90
44695;DHT22;32845;59.422;17.930;2023-02-23T15:43:35;1.70;99.90
44695;DHT22;32845;59.422;17.930;2023-02-23T15:48:12;1.70;99.90
44695;DHT22;32845;59.422;17.930;2023-02-23T15:52:50;1.70;99.90
44695;DHT22;32845;59.422;17.930;2023-02-23T15:57:32;1.60;99.90
44695;DHT22;32845;59.422;17.930;2023-02-23T16:02:12;1.50;99.90
44695;DHT22;32845;59.422;17.930;2023-02-23T16:06:52;1.50;99.90
44695;DHT22;32845;59.422;17.930;2023-02-23T16:11:24;1.40;99.90
44695;DHT22;32845;59.422;17.930;2023-02-23T16:15:55;1.30;99.90
44695;DHT22;32845;59.422;17.930;2023-02-23T16:20:35;1.20;99.90
44695;DHT22;32845;59.422;17.930;2023-02-23T16:25:13;1.20;99.90
44695;DHT22;32845;59.422;17.930;2023-02-23T16:29:44;1.10;99.90
44695;DHT22;32845;59.422;17.930;2023-02-23T16:34:20;1.20;99.90
44695;DHT22;32845;59.422;17.930;2023-02-23T16:38:58;1.20;99.90
44695;DHT22;32845;59.422;17.930;2023-02-23T16:43:29;1.20;99.90
44695;DHT22;32845;59.422;17.930;2023-02-23T16:48:01;1.20;99.90
44695;DHT22;32845;59.422;17.930;2023-02-23T16:52:33;1.20;99.90
44695;DHT22;32845;59.422;17.930;2023-02-23T16:57:05;1.20;99.90
44695;DHT22;32845;59.422;17.930;2023-02-23T17:01:43;1.20;99.90
44695;DHT22;32845;59.422;17.930;2023-02-23T17:06:20;1.20;99.90
44695;DHT22;32845;59.422;17.930;2023-02-23T17:10:52;1.10;99.90
44695;DHT22;32845;59.422;17.930;2023-02-23T17:15:26;1.10;99.90
44695;DHT22;32845;59.422;17.930;2023-02-23T17:19:58;1.10;99.90
44695;DHT22;32845;59.422;17.930;2023-02-23T17:24:29;1.10;99.90
44695;DHT22;32845;59.422;17.930;2023-02-23T17:29:00;1.10;99.90
44695;DHT22;32845;59.422;17.930;2023-02-23T17:33:30;1.10;99.90
44695;DHT22;32845;59.422;17.930;2023-02-23T17:38:07;1.00;99.90
44695;DHT22;32845;59.422;17.930;2023-02-23T17:42:37;1.10;99.90
44695;DHT22;32845;59.422;17.930;2023-02-23T17:47:09;1.00;99.90
44695;DHT22;32845;59.422;17.930;2023-02-23T17:51:40;1.00;99.90
44695;DHT22;32845;59.422;17.930;2023-02-23T17:56:10;1.00;99.90
44695;DHT22;32845;59.422;17.930;2023-02-23T18:00:41;1.00;99.90
44695;DHT22;32845;59.422;17.930;2023-02-23T18:05:12;1.00;99.90
44695;DHT22;32845;59.422;17.930;2023-02-23T18:09:44;1.00;99.90
44695;DHT22;32845;59.422;17.930;2023-02-23T18:14:14;0.90;99.90
44695;DHT22;32845;59.422;17.930;2023-02-23T18:18:47;1.00;99.90
44695;DHT22;32845;59.422;17.930;2023-02-23T18:23:19;1.00;99.90
44695;DHT22;32845;59.422;17.930;2023-02-23T18:27:50;1.00;99.90
44695;DHT22;32845;59.422;17.930;2023-02-23T18:32:23;1.00;99.90
44695;DHT22;32845;59.422;17.930;2023-02-23T18:36:57;1.00;99.90
44695;DHT22;32845;59.422;17.930;2023-02-23T18:41:32;1.00;99.90
44695;DHT22;32845;59.422;17.930;2023-02-23T18:46:07;1.00;99.90
44695;DHT22;32845;59.422;17.930;2023-02-23T18:50:39;1.00;99.90
44695;DHT22;32845;59.422;17.930;2023-02-23T18:55:10;1.00;99.90
44695;DHT22;32845;59.422;17.930;2023-02-23T18:59:41;1.00;99.90
44695;DHT22;32845;59.422;17.930;2023-02-23T19:04:12;1.00;99.90
44695;DHT22;32845;59.422;17.930;2023-02-23T19:08:44;1.00;99.90
44695;DHT22;32845;59.422;17.930;2023-02-23T19:13:17;1.00;99.90
44695;DHT22;32845;59.422;17.930;2023-02-23T19:17:51;1.00;99.90
44695;DHT22;32845;59.422;17.930;2023-02-23T19:22:28;1.00;99.90
44695;DHT22;32845;59.422;17.930;2023-02-23T19:26:59;1.00;99.90
44695;DHT22;32845;59.422;17.930;2023-02-23T19:31:30;0.90;99.90
44695;DHT22;32845;59.422;17.930;2023-02-23T19:36:04;0.90;99.90
44695;DHT22;32845;59.422;17.930;2023-02-23T19:40:37;0.90;99.90
44695;DHT22;32845;59.422;17.930;2023-02-23T19:45:12;0.90;99.90
44695;DHT22;32845;59.422;17.930;2023-02-23T19:49:43;0.90;99.90
44695;DHT22;32845;59.422;17.930;2023-02-23T19:54:14;0.90;99.90
44695;DHT22;32845;59.422;17.930;2023-02-23T19:58:44;0.80;99.90
44695;DHT22;32845;59.422;17.930;2023-02-23T20:03:17;0.80;99.90
44695;DHT22;32845;59.422;17.930;2023-02-23T20:07:50;0.80;99.90
44695;DHT22;32845;59.422;17.930;2023-02-23T20:12:21;0.80;99.90
44695;DHT22;32845;59.422;17.930;2023-02-23T20:16:51;0.80;99.90
44695;DHT22;32845;59.422;17.930;2023-02-23T20:21:24;0.80;99.90
44695;DHT22;32845;59.422;17.930;2023-02-23T20:25:56;0.80;99.90
44695;DHT22;32845;59.422;17.930;2023-02-23T20:30:26;0.80;99.90
44695;DHT22;32845;59.422;17.930;2023-02-23T20:34:57;0.80;99.90
44695;DHT22;32845;59.422;17.930;2023-02-23T20:39:30;0.70;99.90
44695;DHT22;32845;59.422;17.930;2023-02-23T20:44:00;0.70;99.90
44695;DHT22;32845;59.422;17.930;2023-02-23T20:48:33;0.70;99.90
44695;DHT22;32845;59.422;17.930;2023-02-23T20:53:04;0.70;99.90
44695;DHT22;32845;59.422;17.930;2023-02-23T20:57:37;0.70;99.90
44695;DHT22;32845;59.422;17.930;2023-02-23T21:02:09;0.60;99.90
44695;DHT22;32845;59.422;17.930;2023-02-23T21:06:43;0.60;99.90
44695;DHT22;32845;59.422;17.930;2023-02-23T21:11:17;0.60;99.90
44695;DHT22;32845;59.422;17.930;2023-02-23T21:15:55;0.60;99.90
44695;DHT22;32845;59.422;17.930;2023-02-23T21:20:30;0.60;99.90
44695;DHT22;32845;59.422;17.930;2023-02-23T21:25:02;0.60;99.90
44695;DHT22;32845;59.422;17.930;2023-02-23T21:29:33;0.60;99.90
44695;DHT22;32845;59.422;17.930;2023-02-23T21:34:05;0.60;99.90
44695;DHT22;32845;59.422;17.930;2023-02-23T21:38:37;0.60;99.90
44695;DHT22;32845;59.422;17.930;2023-02-23T21:43:07;0.60;99.90
44695;DHT22;32845;59.422;17.930;2023-02-23T21:47:41;0.50;99.90
44695;DHT22;32845;59.422;17.930;2023-02-23T21:52:11;0.50;99.90
44695;DHT22;32845;59.422;17.930;2023-02-23T21:56:44;0.50;99.90
44695;DHT22;32845;59.422;17.930;2023-02-23T22:01:17;0.50;99.90
44695;DHT22;32845;59.422;17.930;2023-02-23T22:05:48;0.50;99.90
44695;DHT22;32845;59.422;17.930;2023-02-23T22:10:21;0.40;99.90
44695;DHT22;32845;59.422;17.930;2023-02-23T22:14:52;0.50;99.90
44695;DHT22;32845;59.422;17.930;2023-02-23T22:19:23;0.40;99.90
44695;DHT22;32845;59.422;17.930;2023-02-23T22:23:53;0.40;99.90
44695;DHT22;32845;59.422;17.930;2023-02-23T22:28:24;0.40;99.90
44695;DHT22;32845;59.422;17.930;2023-02-23T22:32:55;0.30;99.90
44695;DHT22;32845;59.422;17.930;2023-02-23T22:37:26;0.30;99.90
44695;DHT22;32845;59.422;17.930;2023-02-23T22:42:01;0.20;99.90
44695;DHT22;32845;59.422;17.930;2023-02-23T22:46:39;0.20;99.90
44695;DHT22;32845;59.422;17.930;2023-02-23T22:51:12;0.20;99.90
44695;DHT22;32845;59.422;17.930;2023-02-23T22:55:49;0.20;99.90
44695;DHT22;32845;59.422;17.930;2023-02-23T23:00:21;0.20;99.90
44695;DHT22;32845;59.422;17.930;2023-02-23T23:04:52;0.20;99.90
44695;DHT22;32845;59.422;17.930;2023-02-23T23:09:24;0.20;99.90
44695;DHT22;32845;59.422;17.930;2023-02-23T23:13:57;0.10;99.90
44695;DHT22;32845;59.422;17.930;2023-02-23T23:18:31;0.10;99.90
44695;DHT22;32845;59.422;17.930;2023-02-23T23:23:03;0.00;99.90
44695;DHT22;32845;59.422;17.930;2023-02-23T23:27:36;0.10;99.90
44695;DHT22;32845;59.422;17.930;2023-02-23T23:32:15;0.10;99.90
44695;DHT22;32845;59.422;17.930;2023-02-23T23:36:46;0.00;99.90
44695;DHT22;32845;59.422;17.930;2023-02-23T23:41:24;0.00;99.90
44695;DHT22;32845;59.422;17.930;2023-02-23T23:45:54;0.00;99.90
44695;DHT22;32845;59.422;17.930;2023-02-23T23:50:26;0.00;99.90
44695;DHT22;32845;59.422;17.930;2023-02-23T23:54:56;-0.10;99.90
44695;DHT22;32845;59.422;17.930;2023-02-23T23:59:28;-0.10;99.90
